createdAt,value
2022-09-14T00:01:25.424Z,24.27
2022-09-14T00:04:14.191Z,24.31
2022-09-14T00:06:41.456Z,24.39
2022-09-14T00:09:08.357Z,24.50
2022-09-14T00:11:36.432Z,24.50
2022-09-14T00:14:05.276Z,24.54
2022-09-14T00:16:34.690Z,24.51
2022-09-14T00:19:05.989Z,24.43
2022-09-14T00:21:37.735Z,24.37
2022-09-14T00:24:06.021Z,24.14
2022-09-14T00:26:32.914Z,24.19
2022-09-14T00:29:04.234Z,23.95
2022-09-14T00:31:32.513Z,23.64
2022-09-14T00:33:58.993Z,23.52
2022-09-14T00:36:27.798Z,23.15
2022-09-14T00:38:56.587Z,23.09
2022-09-14T00:41:27.071Z,22.80
2022-09-14T00:44:03.986Z,22.74
2022-09-14T00:46:39.401Z,23.05
2022-09-14T00:49:12.870Z,23.32
2022-09-14T00:51:45.927Z,23.28
2022-09-14T00:54:12.264Z,23.46
2022-09-14T00:56:38.909Z,23.33
2022-09-14T00:59:21.365Z,23.49
2022-09-14T01:01:48.898Z,23.65
2022-09-14T01:04:15.283Z,23.85
2022-09-14T01:06:52.282Z,23.99
2022-09-14T01:09:33.759Z,24.06
2022-09-14T01:12:06.155Z,24.14
2022-09-14T01:14:47.647Z,23.88
2022-09-14T01:17:32.394Z,23.47
2022-09-14T01:20:20.688Z,23.32
2022-09-14T01:22:59.980Z,23.01
2022-09-14T01:25:55.197Z,23.17
2022-09-14T01:28:27.214Z,23.22
2022-09-14T01:30:58.339Z,23.11
2022-09-14T01:33:33.077Z,22.99
2022-09-14T01:36:04.613Z,22.98
2022-09-14T01:38:36.076Z,23.09
2022-09-14T01:41:06.912Z,23.32
2022-09-14T01:43:50.418Z,23.27
2022-09-14T01:46:20.315Z,23.19
2022-09-14T01:49:11.907Z,23.32
2022-09-14T01:51:53.187Z,23.16
2022-09-14T01:54:22.549Z,23.24
2022-09-14T01:56:56.818Z,23.23
2022-09-14T01:59:27.685Z,22.70
2022-09-14T02:01:59.075Z,22.66
2022-09-14T02:04:38.343Z,22.70
2022-09-14T02:07:04.788Z,22.64
2022-09-14T02:09:31.226Z,22.44
2022-09-14T02:12:00.594Z,22.33
2022-09-14T02:14:27.869Z,22.34
2022-09-14T02:16:54.221Z,22.47
2022-09-14T02:19:23.819Z,22.57
2022-09-14T02:21:50.485Z,22.44
2022-09-14T02:24:17.994Z,22.44
2022-09-14T02:26:45.404Z,22.51
2022-09-14T02:29:13.276Z,22.67
2022-09-14T02:31:55.271Z,22.38
2022-09-14T02:34:39.922Z,22.40
2022-09-14T02:37:18.045Z,22.49
2022-09-14T02:40:12.297Z,22.63
2022-09-14T02:43:07.448Z,22.62
2022-09-14T02:46:04.850Z,22.62
2022-09-14T02:48:41.831Z,22.69
2022-09-14T02:51:30.340Z,22.67
2022-09-14T02:54:03.833Z,22.62
2022-09-14T02:56:31.387Z,22.61
2022-09-14T02:58:57.864Z,22.60
2022-09-14T03:01:25.278Z,22.65
2022-09-14T03:03:51.909Z,22.52
2022-09-14T03:06:18.295Z,22.51
2022-09-14T03:08:45.141Z,22.56
2022-09-14T03:11:12.086Z,22.53
2022-09-14T03:13:38.694Z,22.55
2022-09-14T03:16:10.513Z,22.56
2022-09-14T03:18:37.756Z,22.58
2022-09-14T03:21:05.148Z,22.51
2022-09-14T03:23:35.794Z,22.47
2022-09-14T03:26:05.875Z,22.43
2022-09-14T03:28:32.167Z,22.40
2022-09-14T03:31:01.640Z,22.36
2022-09-14T03:33:27.977Z,22.38
2022-09-14T03:35:54.271Z,22.39
2022-09-14T03:38:21.288Z,22.41
2022-09-14T03:40:48.203Z,22.54
2022-09-14T03:43:14.633Z,22.67
2022-09-14T03:45:41.442Z,22.87
2022-09-14T03:48:11.493Z,22.76
2022-09-14T03:50:38.307Z,22.63
2022-09-14T03:53:04.768Z,22.44
2022-09-14T03:55:31.069Z,22.37
2022-09-14T03:57:57.355Z,22.44
2022-09-14T04:00:24.000Z,22.41
2022-09-14T04:02:50.351Z,22.38
2022-09-14T04:05:21.103Z,22.40
2022-09-14T04:07:48.070Z,22.40
2022-09-14T04:10:14.357Z,22.39
2022-09-14T04:12:43.923Z,22.23
2022-09-14T04:15:10.524Z,22.20
2022-09-14T04:17:36.871Z,22.13
2022-09-14T04:20:03.877Z,22.24
2022-09-14T04:22:30.160Z,22.22
2022-09-14T04:24:56.460Z,22.18
2022-09-14T04:27:23.131Z,22.15
2022-09-14T04:29:50.343Z,22.05
2022-09-14T04:32:17.324Z,22.16
2022-09-14T04:34:43.598Z,22.32
2022-09-14T04:37:09.894Z,22.26
2022-09-14T04:39:36.181Z,22.25
2022-09-14T04:42:02.485Z,22.26
2022-09-14T04:44:28.772Z,22.28
2022-09-14T04:46:55.370Z,22.44
2022-09-14T04:49:21.876Z,22.51
2022-09-14T04:51:48.679Z,22.78
2022-09-14T04:54:17.254Z,23.02
2022-09-14T04:56:44.316Z,23.25
2022-09-14T04:59:11.112Z,23.34
2022-09-14T05:01:40.390Z,23.19
2022-09-14T05:04:08.525Z,22.94
2022-09-14T05:06:37.775Z,22.90
2022-09-14T05:09:06.601Z,22.87
2022-09-14T05:11:35.352Z,22.84
2022-09-14T05:14:02.430Z,22.80
2022-09-14T05:16:34.169Z,22.96
2022-09-14T05:19:04.159Z,22.92
2022-09-14T05:21:32.096Z,22.86
2022-09-14T05:24:01.353Z,22.73
2022-09-14T05:26:29.879Z,22.80
2022-09-14T05:28:59.284Z,22.90
2022-09-14T05:31:27.112Z,22.96
2022-09-14T05:33:54.023Z,23.21
2022-09-14T05:36:20.452Z,23.09
2022-09-14T05:38:46.860Z,23.00
2022-09-14T05:41:15.094Z,22.85
2022-09-14T05:43:42.226Z,22.77
2022-09-14T05:46:12.437Z,22.64
2022-09-14T05:48:39.824Z,22.74
2022-09-14T05:51:11.799Z,22.85
2022-09-14T05:53:38.105Z,23.03
2022-09-14T05:56:11.077Z,23.29
2022-09-14T05:58:38.734Z,23.48
2022-09-14T06:01:14.115Z,23.42
2022-09-14T06:03:41.213Z,23.60
2022-09-14T06:06:08.789Z,23.68
2022-09-14T06:08:35.668Z,23.80
2022-09-14T06:11:23.829Z,23.79
2022-09-14T06:13:51.177Z,23.45
2022-09-14T06:16:19.658Z,23.37
2022-09-14T06:18:46.747Z,23.31
2022-09-14T06:21:18.836Z,23.14
2022-09-14T06:23:46.260Z,23.08
2022-09-14T06:26:12.953Z,23.20
2022-09-14T06:28:39.443Z,23.21
2022-09-14T06:31:07.627Z,23.15
2022-09-14T06:33:34.959Z,22.98
2022-09-14T06:36:09.050Z,22.72
2022-09-14T06:38:35.550Z,22.63
2022-09-14T06:41:05.272Z,22.56
2022-09-14T06:43:33.961Z,22.40
2022-09-14T06:46:10.889Z,22.25
2022-09-14T06:48:45.354Z,22.29
2022-09-14T06:51:17.641Z,22.37
2022-09-14T06:53:45.742Z,22.46
2022-09-14T06:56:13.048Z,22.55
2022-09-14T06:58:39.984Z,22.71
2022-09-14T07:01:12.626Z,22.86
2022-09-14T07:03:39.915Z,23.02
2022-09-14T07:06:18.249Z,22.95
2022-09-14T07:08:45.093Z,22.70
2022-09-14T07:11:15.676Z,22.70
2022-09-14T07:13:42.038Z,22.67
2022-09-14T07:16:09.123Z,22.71
2022-09-14T07:18:36.371Z,22.70
2022-09-14T07:21:12.459Z,22.68
2022-09-14T07:23:41.604Z,22.51
2022-09-14T07:26:13.704Z,22.44
2022-09-14T07:28:41.091Z,22.41
2022-09-14T07:31:24.672Z,22.44
2022-09-14T07:33:59.658Z,22.46
2022-09-14T07:36:28.683Z,22.52
2022-09-14T07:38:58.329Z,22.55
2022-09-14T07:41:27.190Z,22.61
2022-09-14T07:43:56.706Z,22.66
2022-09-14T07:46:23.980Z,22.64
2022-09-14T07:48:55.678Z,22.61
2022-09-14T07:51:22.699Z,22.64
2022-09-14T07:53:49.232Z,22.36
2022-09-14T07:56:16.874Z,22.30
2022-09-14T07:58:44.352Z,22.36
2022-09-14T08:01:13.757Z,22.51
2022-09-14T08:03:42.848Z,22.61
2022-09-14T08:06:12.014Z,22.79
2022-09-14T08:08:40.332Z,23.05
2022-09-14T08:11:11.096Z,23.20
2022-09-14T08:13:39.717Z,23.33
2022-09-14T08:16:06.303Z,22.91
2022-09-14T08:18:34.090Z,22.47
2022-09-14T08:21:06.496Z,22.63
2022-09-14T08:23:33.305Z,22.91
2022-09-14T08:26:08.259Z,22.90
2022-09-14T08:28:35.847Z,23.09
2022-09-14T08:31:04.719Z,23.20
2022-09-14T08:33:33.546Z,22.86
2022-09-14T08:36:00.678Z,22.77
2022-09-14T08:38:27.219Z,22.67
2022-09-14T08:40:54.390Z,22.68
2022-09-14T08:43:24.451Z,22.75
2022-09-14T08:45:55.013Z,22.78
2022-09-14T08:48:30.954Z,22.79
2022-09-14T08:50:57.375Z,22.85
2022-09-14T08:53:25.748Z,22.85
2022-09-14T08:56:07.002Z,22.86
2022-09-14T08:59:02.242Z,22.82
2022-09-14T09:01:36.209Z,22.95
2022-09-14T09:04:14.544Z,22.92
2022-09-14T09:06:52.248Z,22.86
2022-09-14T09:09:25.470Z,22.86
2022-09-14T09:11:53.980Z,23.00
2022-09-14T09:14:33.073Z,23.10
2022-09-14T09:17:04.216Z,23.19
2022-09-14T09:19:40.042Z,23.28
2022-09-14T09:22:16.776Z,23.36
2022-09-14T09:24:52.184Z,23.29
2022-09-14T09:27:18.702Z,23.44
2022-09-14T09:29:45.238Z,23.44
2022-09-14T09:32:16.599Z,23.35
2022-09-14T09:34:44.521Z,23.34
2022-09-14T09:37:21.236Z,23.44
2022-09-14T09:39:47.939Z,23.32
2022-09-14T09:42:21.417Z,23.35
2022-09-14T09:45:04.018Z,23.31
2022-09-14T09:47:34.640Z,23.42
2022-09-14T09:50:21.395Z,23.48
2022-09-14T09:52:57.664Z,23.33
2022-09-14T09:55:32.088Z,23.47
2022-09-14T09:58:21.769Z,23.39
2022-09-14T10:01:32.884Z,23.46
2022-09-14T10:04:06.862Z,23.58
2022-09-14T10:06:43.239Z,23.65
2022-09-14T10:09:16.074Z,23.64
2022-09-14T10:11:43.055Z,23.68
2022-09-14T10:14:31.341Z,23.69
2022-09-14T10:17:21.449Z,23.49
2022-09-14T10:19:56.055Z,23.67
2022-09-14T10:22:29.582Z,23.63
2022-09-14T10:25:00.004Z,23.62
2022-09-14T10:27:39.568Z,23.74
2022-09-14T10:30:12.985Z,23.72
2022-09-14T10:32:42.404Z,23.77
2022-09-14T10:35:13.795Z,23.71
2022-09-14T10:37:56.371Z,23.69
2022-09-14T10:40:45.690Z,23.61
2022-09-14T10:43:23.251Z,23.68
2022-09-14T10:45:51.795Z,23.66
2022-09-14T10:48:31.192Z,23.69
2022-09-14T10:51:08.911Z,23.59
2022-09-14T10:53:55.526Z,23.49
2022-09-14T10:56:26.937Z,23.50
2022-09-14T10:59:00.407Z,23.42
2022-09-14T11:01:55.038Z,23.52
2022-09-14T11:04:33.730Z,23.59
2022-09-14T11:07:09.955Z,23.48
2022-09-14T11:09:46.305Z,23.62
2022-09-14T11:12:15.216Z,23.77
2022-09-14T11:15:05.565Z,23.77
2022-09-14T11:17:55.017Z,23.75
2022-09-14T11:20:32.656Z,23.81
2022-09-14T11:23:17.364Z,23.77
2022-09-14T11:25:59.814Z,23.90
2022-09-14T11:28:37.919Z,23.95
2022-09-14T11:31:12.128Z,24.03
2022-09-14T11:33:50.820Z,24.12
2022-09-14T11:36:28.244Z,24.15
2022-09-14T11:39:06.067Z,24.00
2022-09-14T11:41:49.626Z,23.97
2022-09-14T11:44:27.003Z,24.04
2022-09-14T11:47:05.431Z,23.94
2022-09-14T11:49:49.815Z,23.88
2022-09-14T11:52:25.530Z,23.97
2022-09-14T11:54:53.294Z,24.00
2022-09-14T11:57:26.254Z,24.13
2022-09-14T11:59:54.267Z,24.13
2022-09-14T12:02:23.463Z,24.09
2022-09-14T12:05:08.293Z,24.21
2022-09-14T12:07:46.798Z,24.18
2022-09-14T12:10:17.368Z,24.18
2022-09-14T12:12:46.319Z,24.21
2022-09-14T12:15:34.150Z,24.07
2022-09-14T12:18:06.647Z,24.06
2022-09-14T12:20:52.521Z,24.19
2022-09-14T12:23:41.069Z,24.11
2022-09-14T12:26:10.423Z,24.16
2022-09-14T12:28:39.748Z,24.25
2022-09-14T12:31:13.063Z,24.11
2022-09-14T12:33:43.764Z,24.17
2022-09-14T12:36:37.447Z,24.07
2022-09-14T12:39:24.443Z,23.74
2022-09-14T12:41:53.527Z,23.51
2022-09-14T12:44:41.545Z,23.61
2022-09-14T12:47:25.911Z,23.17
2022-09-14T12:49:54.207Z,22.99
2022-09-14T12:52:29.700Z,22.72
2022-09-14T12:55:23.215Z,22.78
2022-09-14T12:58:09.643Z,22.88
2022-09-14T13:00:55.655Z,22.47
2022-09-14T13:03:58.057Z,22.43
2022-09-14T13:06:32.489Z,22.48
2022-09-14T13:08:59.708Z,22.68
2022-09-14T13:11:35.499Z,22.92
2022-09-14T13:14:02.341Z,23.00
2022-09-14T13:16:37.638Z,22.97
2022-09-14T13:19:11.280Z,23.11
2022-09-14T13:21:47.469Z,22.60
2022-09-14T13:24:34.585Z,22.95
2022-09-14T13:27:02.439Z,22.79
2022-09-14T13:29:29.479Z,22.95
2022-09-14T13:32:02.544Z,22.79
2022-09-14T13:34:36.921Z,22.89
2022-09-14T13:37:06.057Z,23.11
2022-09-14T13:39:36.501Z,23.54
2022-09-14T13:42:04.933Z,23.80
2022-09-14T13:44:35.964Z,24.10
2022-09-14T13:47:06.177Z,24.27
2022-09-14T13:49:35.279Z,23.92
2022-09-14T13:52:38.917Z,24.18
2022-09-14T13:55:20.357Z,24.68
2022-09-14T13:58:11.521Z,24.81
2022-09-14T14:00:59.990Z,24.21
2022-09-14T14:03:47.011Z,24.23
2022-09-14T14:06:26.528Z,24.61
2022-09-14T14:08:58.176Z,24.65
2022-09-14T14:11:36.740Z,24.45
2022-09-14T14:14:31.508Z,24.69
2022-09-14T14:17:13.297Z,25.03
2022-09-14T14:19:41.063Z,25.12
2022-09-14T14:22:13.541Z,24.91
2022-09-14T14:25:11.715Z,23.85
2022-09-14T14:27:36.492Z,24.30
2022-09-14T14:30:21.907Z,24.80
2022-09-14T14:32:52.835Z,25.02
2022-09-14T14:35:22.775Z,25.18
2022-09-14T14:37:50.566Z,25.25
2022-09-14T14:40:18.133Z,24.94
2022-09-14T14:42:45.327Z,25.06
2022-09-14T14:45:18.760Z,24.57
2022-09-14T14:47:47.173Z,24.38
2022-09-14T14:50:18.821Z,24.34
2022-09-14T14:52:45.137Z,23.97
2022-09-14T14:55:12.057Z,23.64
2022-09-14T14:57:38.864Z,23.45
2022-09-14T15:00:13.015Z,23.23
2022-09-14T15:02:39.292Z,23.14
2022-09-14T15:05:06.294Z,23.27
2022-09-14T15:07:37.080Z,23.20
2022-09-14T15:10:05.374Z,23.17
2022-09-14T15:12:32.316Z,23.19
2022-09-14T15:14:58.887Z,23.00
2022-09-14T15:17:25.384Z,22.79
2022-09-14T15:19:52.494Z,22.55
2022-09-14T15:22:19.395Z,22.82
2022-09-14T15:24:45.681Z,22.90
2022-09-14T15:27:11.967Z,22.60
2022-09-14T15:29:38.456Z,23.32
2022-09-14T15:32:05.055Z,23.34
2022-09-14T15:34:31.385Z,23.46
2022-09-14T15:36:58.799Z,23.99
2022-09-14T15:39:27.240Z,24.23
2022-09-14T15:41:54.396Z,24.61
2022-09-14T15:44:21.510Z,25.27
2022-09-14T15:46:48.328Z,25.83
2022-09-14T15:49:17.868Z,26.31
2022-09-14T15:51:46.196Z,26.70
2022-09-14T15:54:14.080Z,26.92
2022-09-14T15:56:40.627Z,27.19
2022-09-14T15:59:07.273Z,27.32
2022-09-14T16:01:33.843Z,27.38
2022-09-14T16:04:02.923Z,27.81
2022-09-14T16:06:30.060Z,28.15
2022-09-14T16:08:57.533Z,28.15
2022-09-14T16:11:24.404Z,27.83
2022-09-14T16:13:51.518Z,27.90
2022-09-14T16:16:19.588Z,28.03
2022-09-14T16:18:47.191Z,28.03
2022-09-14T16:21:23.334Z,27.47
2022-09-14T16:23:52.768Z,27.17
2022-09-14T16:26:24.679Z,25.82
2022-09-14T16:28:52.189Z,26.03
2022-09-14T16:31:25.635Z,25.69
2022-09-14T16:33:57.978Z,25.53
2022-09-14T16:36:27.475Z,25.20
2022-09-14T16:38:57.324Z,25.13
2022-09-14T16:41:24.760Z,25.11
2022-09-14T16:43:55.925Z,25.38
2022-09-14T16:46:22.773Z,25.57
2022-09-14T16:48:50.071Z,25.47
2022-09-14T16:51:19.204Z,25.41
2022-09-14T16:53:47.213Z,25.69
2022-09-14T16:56:15.218Z,25.70
2022-09-14T16:58:43.760Z,25.71
2022-09-14T17:01:10.092Z,25.76
2022-09-14T17:03:37.296Z,25.87
2022-09-14T17:06:06.334Z,25.82
2022-09-14T17:08:34.884Z,25.66
2022-09-14T17:11:03.857Z,25.74
2022-09-14T17:13:31.572Z,25.81
2022-09-14T17:16:19.321Z,25.75
2022-09-14T17:18:48.727Z,25.73
2022-09-14T17:21:21.726Z,25.66
2022-09-14T17:23:48.764Z,25.54
2022-09-14T17:26:18.524Z,25.50
2022-09-14T17:28:47.242Z,25.38
2022-09-14T17:31:18.257Z,25.28
2022-09-14T17:33:45.000Z,25.22
2022-09-14T17:36:12.234Z,25.12
2022-09-14T17:38:41.116Z,24.91
2022-09-14T17:41:10.113Z,24.97
2022-09-14T17:43:38.102Z,25.06
2022-09-14T17:46:06.338Z,24.83
2022-09-14T17:48:35.743Z,24.89
2022-09-14T17:51:06.599Z,24.91
2022-09-14T17:53:41.382Z,24.93
2022-09-14T17:56:09.745Z,24.77
2022-09-14T17:58:36.759Z,24.76
2022-09-14T18:01:15.629Z,24.81
2022-09-14T18:03:43.759Z,24.62
2022-09-14T18:06:12.303Z,24.69
2022-09-14T18:08:39.869Z,24.69
2022-09-14T18:11:14.621Z,24.65
2022-09-14T18:13:47.745Z,24.66
2022-09-14T18:16:16.645Z,24.73
2022-09-14T18:18:43.430Z,24.51
2022-09-14T18:21:10.219Z,24.40
2022-09-14T18:23:37.575Z,24.46
2022-09-14T18:26:05.658Z,24.45
2022-09-14T18:28:32.846Z,24.05
2022-09-14T18:31:08.056Z,23.64
2022-09-14T18:33:35.253Z,23.52
2022-09-14T18:36:02.652Z,23.11
2022-09-14T18:38:29.930Z,22.72
2022-09-14T18:41:03.233Z,22.74
2022-09-14T18:43:29.710Z,22.10
2022-09-14T18:45:56.035Z,21.50
2022-09-14T18:48:22.564Z,21.23
2022-09-14T18:50:48.863Z,20.71
2022-09-14T18:53:15.155Z,20.76
2022-09-14T18:55:41.441Z,21.08
2022-09-14T18:58:07.802Z,21.48
2022-09-14T19:00:34.526Z,21.54
2022-09-14T19:03:01.104Z,21.03
2022-09-14T19:05:30.009Z,20.54
2022-09-14T19:07:56.533Z,20.55
2022-09-14T19:10:23.054Z,20.80
2022-09-14T19:12:49.394Z,21.19
2022-09-14T19:15:15.858Z,21.06
2022-09-14T19:17:45.535Z,20.74
2022-09-14T19:20:14.769Z,21.05
2022-09-14T19:22:41.138Z,20.58
2022-09-14T19:25:07.942Z,20.50
2022-09-14T19:27:34.321Z,20.17
2022-09-14T19:30:01.078Z,19.94
2022-09-14T19:32:29.780Z,20.15
2022-09-14T19:34:56.155Z,20.29
2022-09-14T19:37:23.861Z,20.14
2022-09-14T19:39:50.685Z,19.83
2022-09-14T19:42:17.313Z,19.93
2022-09-14T19:44:43.726Z,19.83
2022-09-14T19:47:10.022Z,19.99
2022-09-14T19:49:36.373Z,20.11
2022-09-14T19:52:03.316Z,20.10
2022-09-14T19:54:29.610Z,19.95
2022-09-14T19:56:55.898Z,19.68
2022-09-14T19:59:22.403Z,19.70
2022-09-14T20:01:49.476Z,19.54
2022-09-14T20:04:18.132Z,19.28
2022-09-14T20:06:46.178Z,19.25
2022-09-14T20:09:19.728Z,19.28
2022-09-14T20:11:48.048Z,19.53
2022-09-14T20:14:17.536Z,19.63
2022-09-14T20:16:46.639Z,19.75
2022-09-14T20:19:15.251Z,19.89
2022-09-14T20:21:43.117Z,20.04
2022-09-14T20:24:16.665Z,20.00
2022-09-14T20:26:45.604Z,20.13
2022-09-14T20:29:12.351Z,20.15
2022-09-14T20:31:38.972Z,20.02
2022-09-14T20:34:05.540Z,19.89
2022-09-14T20:36:32.320Z,19.89
2022-09-14T20:38:59.495Z,19.68
2022-09-14T20:41:31.850Z,19.76
2022-09-14T20:43:58.226Z,19.47
2022-09-14T20:46:34.994Z,19.38
2022-09-14T20:49:02.897Z,19.47
2022-09-14T20:51:29.187Z,19.45
2022-09-14T20:53:58.354Z,19.58
2022-09-14T20:56:27.305Z,19.76
2022-09-14T20:58:55.580Z,19.72
2022-09-14T21:01:24.527Z,19.51
2022-09-14T21:03:51.561Z,19.50
2022-09-14T21:06:21.040Z,19.55
2022-09-14T21:08:47.810Z,19.63
2022-09-14T21:11:17.192Z,19.24
2022-09-14T21:13:46.830Z,19.08
2022-09-14T21:16:14.891Z,18.93
2022-09-14T21:18:42.141Z,19.19
2022-09-14T21:21:14.229Z,19.01
2022-09-14T21:23:41.053Z,18.88
2022-09-14T21:26:09.408Z,18.81
2022-09-14T21:28:37.307Z,18.76
2022-09-14T21:31:09.650Z,18.79
2022-09-14T21:33:38.395Z,18.82
2022-09-14T21:36:06.569Z,18.81
2022-09-14T21:38:32.940Z,18.69
2022-09-14T21:40:59.454Z,18.71
2022-09-14T21:43:26.175Z,18.72
2022-09-14T21:45:53.055Z,18.72
2022-09-14T21:48:19.847Z,18.79
2022-09-14T21:50:47.548Z,18.75
2022-09-14T21:53:14.029Z,18.91
2022-09-14T21:55:41.034Z,19.07
2022-09-14T21:58:07.750Z,19.13
2022-09-14T22:00:34.983Z,19.30
2022-09-14T22:03:01.409Z,19.23
2022-09-14T22:05:27.887Z,19.15
2022-09-14T22:07:54.190Z,19.23
2022-09-14T22:10:20.703Z,19.23
2022-09-14T22:12:48.391Z,19.33
2022-09-14T22:15:15.857Z,19.38
2022-09-14T22:17:42.175Z,19.38
2022-09-14T22:20:08.587Z,19.35
2022-09-14T22:22:34.889Z,19.42
2022-09-14T22:25:01.229Z,19.54
2022-09-14T22:27:27.527Z,19.41
2022-09-14T22:29:53.845Z,19.31
2022-09-14T22:32:20.623Z,19.34
2022-09-14T22:34:49.585Z,19.25
2022-09-14T22:37:16.137Z,19.33
2022-09-14T22:39:42.449Z,19.36
2022-09-14T22:42:08.747Z,19.47
2022-09-14T22:44:35.041Z,19.35
2022-09-14T22:47:01.315Z,19.13
2022-09-14T22:49:27.679Z,18.99
2022-09-14T22:51:54.019Z,18.86
2022-09-14T22:54:20.419Z,18.83
2022-09-14T22:56:46.757Z,18.86
2022-09-14T22:59:13.077Z,18.79
2022-09-14T23:01:41.360Z,18.67
2022-09-14T23:04:11.404Z,18.67
2022-09-14T23:06:40.601Z,18.73
2022-09-14T23:09:09.063Z,18.66
2022-09-14T23:11:35.462Z,18.76
2022-09-14T23:14:02.083Z,18.75
2022-09-14T23:16:30.525Z,18.85
2022-09-14T23:19:01.009Z,18.96
2022-09-14T23:21:28.631Z,18.84
2022-09-14T23:23:58.685Z,18.82
2022-09-14T23:26:25.722Z,18.84
2022-09-14T23:29:03.589Z,18.82
2022-09-14T23:31:32.004Z,18.91
2022-09-14T23:34:00.217Z,18.84
2022-09-14T23:36:27.238Z,18.87
2022-09-14T23:38:53.816Z,18.79
2022-09-14T23:41:21.833Z,18.75
2022-09-14T23:43:48.688Z,18.77
2022-09-14T23:46:16.038Z,18.67
2022-09-14T23:48:42.452Z,18.74
2022-09-14T23:51:10.659Z,18.73
2022-09-14T23:53:37.822Z,18.68
2022-09-14T23:56:04.991Z,18.73
2022-09-14T23:58:32.057Z,18.72
